Time;durP1;ratioP1;P1;durP2;ratioP2;P2;SDS_P1;SDS_P2;PMS_P1;PMS_P2;Temp;Humidity;BMP_temperature;BMP_pressure;BME280_temperature;BME280_humidity;BME280_pressure;Samples;Min_cycle;Max_cycle;Signal;HPM_P1;HPM_P2
2022/02/07 08:35:55;;;;;;;24.27;12.68;;;;;;;0.99;91.08;98938.83;1689295;81;21699;-46
2022/02/07 08:46:11;;;;;;;29.50;14.70;;;;;;;1.19;91.18;98981.66;1694347;83;21447;-38
2022/02/07 08:48:40;;;;;;;33.38;15.55;;;;;;;1.17;91.58;98963.61;1698274;83;21427;-38
2022/02/07 08:51:07;;;;;;;26.15;14.30;;;;;;;1.19;91.84;98963.63;1682251;83;21055;-41
2022/02/07 08:53:40;;;;;;;27.30;14.40;;;;;;;1.25;91.98;98946.97;1694756;83;20998;-46
2022/02/07 08:56:05;;;;;;;36.50;15.60;;;;;;;1.35;92.23;98941.13;1696059;83;21439;-46
2022/02/07 08:58:35;;;;;;;30.45;15.00;;;;;;;1.45;91.95;98924.95;1694291;83;21011;-47
2022/02/07 09:09:25;;;;;;;27.02;13.72;;;;;;;1.77;91.10;98921.52;1692558;83;20969;-47
2022/02/07 09:12:08;;;;;;;30.60;14.28;;;;;;;1.81;90.90;98925.02;1695431;83;21525;-47
2022/02/07 09:19:19;;;;;;;27.37;12.73;;;;;;;1.84;91.26;98920.75;1695178;83;21627;-46
2022/02/07 09:34:28;;;;;;;23.62;12.00;;;;;;;2.05;91.46;98881.47;1696094;83;21111;-39
2022/02/07 09:38:20;;;;;;;23.07;12.45;;;;;;;2.10;91.28;98904.75;1688124;83;21136;-39
2022/02/07 09:41:11;;;;;;;25.20;12.13;;;;;;;2.13;91.44;98882.41;1690691;83;21061;-46
2022/02/07 09:43:45;;;;;;;22.82;12.30;;;;;;;2.25;91.19;98890.70;1693651;83;20972;-46
2022/02/07 09:46:13;;;;;;;20.10;11.25;;;;;;;2.33;90.98;98890.38;1693485;83;21635;-38
2022/02/07 09:48:40;;;;;;;26.50;14.85;;;;;;;2.42;90.37;98879.27;1692075;83;21251;-38
2022/02/07 09:51:13;;;;;;;22.50;13.13;;;;;;;2.49;89.88;98865.56;1690852;83;21043;-47
2022/02/07 09:53:40;;;;;;;17.55;11.35;;;;;;;2.53;89.76;98858.30;1692313;83;21386;-38
2022/02/07 09:56:10;;;;;;;25.65;13.85;;;;;;;2.60;89.08;98851.47;1695585;83;21062;-46
2022/02/07 09:58:38;;;;;;;26.52;12.78;;;;;;;2.66;88.84;98848.94;1690533;83;20997;-40
2022/02/07 10:01:09;;;;;;;21.90;11.60;;;;;;;2.74;88.78;98837.40;1690333;83;21073;-47
2022/02/07 10:03:50;;;;;;;20.45;11.65;;;;;;;2.84;88.02;98840.47;1695302;83;21632;-47
2022/02/07 10:07:13;;;;;;;25.55;12.23;;;;;;;2.94;87.58;98850.03;1694353;83;21326;-46
2022/02/07 10:12:30;;;;;;;21.00;11.73;;;;;;;3.08;85.29;98842.39;1693307;83;21029;-38
2022/02/07 10:15:27;;;;;;;27.02;11.83;;;;;;;3.10;85.05;98842.83;1697153;83;21020;-37
2022/02/07 10:18:23;;;;;;;26.00;12.45;;;;;;;3.12;84.33;98844.98;1693584;83;21533;-46
2022/02/07 10:37:42;;;;;;;23.57;10.58;;;;;;;2.99;84.94;98837.15;1695717;83;21065;-48
2022/02/07 10:39:49;;;;;;;19.87;10.75;;;;;;;2.98;85.09;98837.58;1692919;83;21094;-40
2022/02/07 10:46:19;;;;;;;21.62;10.23;;;;;;;3.06;85.01;98824.70;1678642;83;21056;-47
2022/02/07 10:49:27;;;;;;;20.20;10.80;;;;;;;3.09;85.13;98823.45;1651025;85;21024;-39
2022/02/07 10:52:14;;;;;;;23.70;10.28;;;;;;;3.17;85.27;98834.69;1643647;85;22194;-46
2022/02/07 10:54:50;;;;;;;24.95;11.20;;;;;;;3.35;84.82;98833.50;1635819;85;21091;-47
2022/02/07 10:57:30;;;;;;;21.30;10.35;;;;;;;3.63;84.36;98825.89;1646709;85;21193;-47
2022/02/07 11:00:34;;;;;;;16.32;10.55;;;;;;;3.93;83.69;98814.78;1657219;85;21088;-47
2022/02/07 11:03:26;;;;;;;20.55;10.13;;;;;;;4.25;82.89;98810.56;1653059;84;21081;-48
2022/02/07 11:14:41;;;;;;;19.60;10.75;;;;;;;5.17;77.71;98789.81;1631215;85;21085;-47
2022/02/07 11:17:36;;;;;;;;;;;;;;;5.40;77.12;98794.08;1652862;85;21065;-48
2022/02/07 11:27:59;;;;;;;20.02;10.72;;;;;;;5.56;74.82;98782.77;1668504;83;21093;-39
2022/02/07 11:30:48;;;;;;;25.62;10.43;;;;;;;5.64;74.41;98767.19;1701700;83;21097;-47
2022/02/07 11:33:40;;;;;;;18.60;9.45;;;;;;;5.75;74.37;98759.77;1696719;83;21118;-47
2022/02/07 11:36:53;;;;;;;18.50;9.88;;;;;;;5.87;72.73;98759.70;1640501;85;21123;-48
2022/02/07 11:39:58;;;;;;;19.35;9.20;;;;;;;5.93;72.54;98753.66;1637899;85;21020;-47
2022/02/07 11:43:19;;;;;;;16.42;9.10;;;;;;;6.01;72.17;98759.65;1703827;83;21002;-48
2022/02/07 11:46:17;;;;;;;15.63;8.43;;;;;;;6.10;71.88;98757.01;1701816;83;21117;-40
2022/02/07 11:49:06;;;;;;;17.75;8.45;;;;;;;6.19;70.90;98762.56;1701549;83;21074;-41
2022/02/07 11:51:38;;;;;;;15.60;9.00;;;;;;;6.23;71.03;98766.87;1700541;83;21514;-49
2022/02/07 11:54:11;;;;;;;19.02;7.92;;;;;;;6.32;71.40;98765.52;1700406;83;21019;-40
2022/02/07 11:56:54;;;;;;;19.73;8.45;;;;;;;6.46;70.33;98761.52;1698459;83;21656;-40
2022/02/07 11:59:50;;;;;;;16.27;9.15;;;;;;;6.66;69.12;98763.49;1700916;83;21072;-40
2022/02/07 12:03:06;;;;;;;17.40;8.80;;;;;;;6.74;68.72;98756.95;1688911;83;21036;-39
2022/02/07 12:09:25;;;;;;;16.62;7.67;;;;;;;6.84;67.95;98759.01;1682377;83;20973;-47
2022/02/07 12:11:57;;;;;;;15.13;8.10;;;;;;;6.84;67.00;98749.50;1634300;84;21124;-39
2022/02/07 12:14:53;;;;;;;17.45;8.20;;;;;;;6.66;67.40;98747.04;1699180;83;21051;-39
2022/02/07 12:17:54;;;;;;;17.45;8.25;;;;;;;6.58;68.39;98739.32;1674164;83;21002;-47
2022/02/07 12:20:25;;;;;;;17.52;8.13;;;;;;;6.52;68.73;98747.61;1698221;82;21051;-40
2022/02/07 12:22:59;;;;;;;19.07;8.58;;;;;;;6.50;69.77;98748.93;1700805;83;21729;-47
2022/02/07 12:25:46;;;;;;;16.12;8.10;;;;;;;6.51;70.05;98746.75;1680714;82;21137;-47
2022/02/07 12:28:19;;;;;;;22.48;7.92;;;;;;;6.56;70.36;98758.41;1710358;82;21082;-39
2022/02/07 12:31:11;;;;;;;15.78;7.87;;;;;;;6.68;70.60;98758.31;1701813;83;21524;-40
2022/02/07 12:33:38;;;;;;;14.93;8.13;;;;;;;6.81;70.15;98755.16;1688414;83;21057;-48
2022/02/07 12:36:13;;;;;;;19.12;8.68;;;;;;;6.86;69.83;98754.67;1665852;84;21225;-47
2022/02/07 12:38:51;;;;;;;18.45;8.33;;;;;;;6.84;69.80;98758.59;1692348;83;21600;-39
2022/02/07 12:41:23;;;;;;;17.98;8.13;;;;;;;6.84;69.94;98747.31;1700667;83;21043;-41
2022/02/07 12:43:57;;;;;;;17.05;8.18;;;;;;;6.83;69.31;98746.89;1709272;83;21020;-40
2022/02/07 12:46:29;;;;;;;15.98;8.00;;;;;;;6.82;69.25;98740.83;1700842;83;21576;-40
2022/02/07 12:49:00;;;;;;;21.17;9.28;;;;;;;6.84;69.24;98735.20;1687294;83;20996;-39
2022/02/07 12:51:42;;;;;;;22.62;8.80;;;;;;;6.84;69.03;98729.11;1705127;82;21563;-41
2022/02/07 12:54:08;;;;;;;20.75;8.75;;;;;;;6.87;69.04;98745.55;1697974;83;20998;-38
2022/02/07 12:56:37;;;;;;;18.40;8.28;;;;;;;6.98;68.55;98752.39;1706682;82;21516;-46
2022/02/07 12:59:04;;;;;;;15.70;8.10;;;;;;;7.08;68.27;98752.29;1698184;82;21313;-47
2022/02/07 13:01:36;;;;;;;16.67;8.15;;;;;;;7.19;67.51;98737.88;1694425;83;21082;-39
2022/02/07 13:04:07;;;;;;;14.78;8.10;;;;;;;7.34;66.60;98733.78;1688931;82;21855;-38
2022/02/07 13:06:48;;;;;;;15.93;8.20;;;;;;;7.53;66.24;98721.39;1699355;81;21546;-46
2022/02/07 13:09:28;;;;;;;15.32;7.97;;;;;;;7.78;66.04;98721.95;1692934;83;20958;-46
2022/02/07 13:12:03;;;;;;;12.37;8.05;;;;;;;8.03;64.98;98719.00;1686491;83;21057;-45
2022/02/07 13:14:31;;;;;;;23.40;8.20;;;;;;;8.24;63.69;98732.57;1694412;83;20976;-38
2022/02/07 13:16:58;;;;;;;16.82;8.48;;;;;;;8.37;63.27;98729.80;1700963;83;21061;-46
2022/02/07 13:19:27;;;;;;;13.32;7.55;;;;;;;8.44;63.24;98729.67;1699151;83;20992;-46
2022/02/07 13:22:05;;;;;;;16.90;8.55;;;;;;;8.57;62.66;98732.07;1697679;83;21024;-39
2022/02/07 13:24:34;;;;;;;16.20;7.87;;;;;;;8.76;62.76;98728.28;1693629;83;20986;-39
2022/02/07 13:27:02;;;;;;;17.98;7.80;;;;;;;9.11;61.82;98730.70;1699208;83;21409;-39
2022/02/07 13:29:41;;;;;;;17.57;8.35;;;;;;;9.23;60.77;98735.23;1702880;83;21593;-39
2022/02/07 13:32:06;;;;;;;20.65;9.68;;;;;;;9.22;60.67;98725.69;1695602;83;21627;-39
2022/02/07 13:34:38;;;;;;;15.63;9.33;;;;;;;9.34;60.80;98721.98;1702315;83;21536;-38
2022/02/07 13:37:26;;;;;;;19.25;9.45;;;;;;;9.57;60.60;98710.62;1689166;83;21042;-41
2022/02/07 13:40:06;;;;;;;16.40;8.83;;;;;;;9.98;59.12;98695.80;1699725;83;21085;-39
2022/02/07 13:42:44;;;;;;;18.17;9.30;;;;;;;10.02;58.03;98699.17;1678016;84;21680;-39
2022/02/07 13:45:17;;;;;;;22.37;9.43;;;;;;;9.72;58.30;98695.05;1691005;83;21024;-39
2022/02/07 13:47:52;;;;;;;14.85;8.55;;;;;;;9.44;58.83;98704.36;1693994;83;21484;-45
2022/02/07 13:50:23;;;;;;;16.30;9.43;;;;;;;9.20;59.31;98712.23;1689461;83;21061;-45
2022/02/07 13:56:49;;;;;;;15.23;9.03;;;;;;;8.83;60.13;98718.16;1677082;83;21492;-45
2022/02/07 13:59:17;;;;;;;17.42;9.43;;;;;;;8.58;60.92;98716.84;1692815;83;20997;-44
2022/02/07 14:01:46;;;;;;;19.00;9.33;;;;;;;8.46;61.26;98713.55;1646572;86;21673;-46
2022/02/07 14:04:20;;;;;;;22.90;9.33;;;;;;;8.35;61.56;98717.19;1641621;87;21089;-46
2022/02/07 14:07:09;;;;;;;19.42;9.53;;;;;;;8.26;61.96;98723.42;1702743;83;21109;-46
2022/02/07 14:09:38;;;;;;;22.75;9.85;;;;;;;8.17;62.14;98713.13;1701147;83;21532;-46
2022/02/07 14:12:07;;;;;;;18.15;10.25;;;;;;;8.09;62.46;98707.19;1700474;83;21602;-46
2022/02/07 14:14:35;;;;;;;30.05;12.58;;;;;;;7.99;62.82;98703.41;1708120;83;21528;-38
